Thompson, Michigan
Current Conditions -  °F | °C
As of 12:14 AM on Saturday 22 Nov 2014 (Local Time) from KISQ Reporting Station
Scattered Clouds Scattered Clouds  
Wind Chill: 22°   Ceiling: Unl
Heat Index: 32°   Visibility: 10mi
Dew Point: 19°   Wind: 15mph
Humidity: 58%   Direction: 220°SW
Pressure: 29.96"   Gusts: 25mph
Location:  46.1571°N, 86.3397°W
Report Text: KISQ 220514Z AUTO 22013G22KT 10SM SCT028 00/M07 A2996 RMK AO2 T00021072
Loading
Personal Weather Stations






























Interactive Weather Map New forecast layout! Learn more

10-Day Weather Forecast

Advertisements
Track Severe Weather on mobile